createdAt,value
2018-10-12T00:00:56.433Z,3.63
2018-10-12T00:03:29.196Z,4.57
2018-10-12T00:06:01.588Z,4.73
2018-10-12T00:08:33.885Z,3.47
2018-10-12T00:11:06.251Z,4.13
2018-10-12T00:13:38.433Z,3.50
2018-10-12T00:16:10.863Z,3.10
2018-10-12T00:18:43.343Z,3.87
2018-10-12T00:21:15.781Z,3.37
2018-10-12T00:23:47.913Z,3.20
2018-10-12T00:26:21.934Z,5.00
2018-10-12T00:28:56.401Z,4.10
2018-10-12T00:31:32.721Z,3.80
2018-10-12T00:34:07.988Z,3.90
2018-10-12T00:44:41.091Z,4.20
2018-10-12T00:47:15.373Z,4.03
2018-10-12T00:49:49.248Z,4.70
2018-10-12T00:52:25.245Z,3.33
2018-10-12T00:54:58.738Z,4.73
2018-10-12T00:57:34.255Z,4.93
2018-10-12T01:00:08.822Z,4.67
2018-10-12T01:02:46.965Z,4.43
2018-10-12T01:05:22.074Z,3.50
2018-10-12T01:07:56.076Z,3.73
2018-10-12T01:10:32.213Z,3.97
2018-10-12T01:13:04.915Z,4.60
2018-10-12T01:15:37.547Z,6.10
2018-10-12T01:21:01.394Z,4.43
2018-10-12T01:26:13.594Z,3.63
2018-10-12T01:28:50.908Z,3.10
2018-10-12T01:31:24.624Z,5.00
2018-10-12T01:33:59.108Z,3.30
2018-10-12T01:39:51.158Z,4.10
2018-10-12T01:45:14.842Z,4.70
2018-10-12T01:47:48.023Z,3.43
2018-10-12T01:50:23.663Z,3.70
2018-10-12T01:52:56.783Z,3.93
2018-10-12T01:55:32.333Z,3.77
2018-10-12T01:58:05.921Z,6.40
2018-10-12T02:00:39.803Z,4.27
2018-10-12T02:03:13.307Z,4.70
2018-10-12T02:05:48.062Z,4.30
2018-10-12T02:08:22.592Z,4.90
2018-10-12T02:16:14.299Z,9.70
2018-10-12T02:18:50.368Z,4.20
2018-10-12T02:21:26.942Z,7.43
2018-10-12T02:24:04.135Z,4.00
2018-10-12T02:26:38.433Z,4.07
2018-10-12T02:29:13.717Z,4.80
2018-10-12T02:31:47.070Z,4.30
2018-10-12T02:34:20.709Z,4.00
2018-10-12T02:36:53.775Z,5.83
2018-10-12T02:39:28.999Z,5.07
2018-10-12T02:42:05.987Z,7.10
2018-10-12T02:44:39.695Z,5.10
2018-10-12T02:47:14.042Z,6.73
2018-10-12T02:49:48.396Z,5.27
2018-10-12T02:52:21.392Z,5.17
2018-10-12T02:55:00.956Z,5.90
2018-10-12T03:00:12.037Z,8.17
2018-10-12T03:02:45.644Z,4.73
2018-10-12T03:05:18.499Z,6.20
2018-10-12T03:07:51.066Z,5.37
2018-10-12T03:10:24.158Z,8.97
2018-10-12T03:12:56.461Z,9.40
2018-10-12T03:15:28.875Z,6.30
2018-10-12T03:18:01.522Z,5.10
2018-10-12T03:20:33.847Z,49.77
2018-10-12T03:23:06.407Z,54.30
2018-10-12T03:25:38.840Z,38.13
2018-10-12T03:28:20.566Z,8.77
2018-10-12T03:30:53.247Z,5.57
2018-10-12T03:33:25.938Z,6.40
2018-10-12T03:35:59.064Z,9.27
2018-10-12T03:38:31.634Z,5.97
2018-10-12T03:41:04.016Z,16.80
2018-10-12T03:43:36.657Z,12.23
2018-10-12T03:46:09.361Z,14.50
2018-10-12T03:48:42.163Z,13.87
2018-10-12T03:51:14.456Z,8.83
2018-10-12T03:53:46.968Z,7.53
2018-10-12T03:56:19.326Z,7.13
2018-10-12T03:58:52.501Z,6.40
2018-10-12T04:01:25.098Z,6.90
2018-10-12T04:03:57.229Z,7.10
2018-10-12T04:06:30.547Z,9.83
2018-10-12T04:09:03.014Z,7.90
2018-10-12T04:11:35.151Z,6.70
2018-10-12T04:14:07.374Z,8.30
2018-10-12T04:16:39.644Z,6.83
2018-10-12T04:19:12.181Z,6.83
2018-10-12T04:21:44.351Z,6.83
2018-10-12T04:24:16.883Z,7.10
2018-10-12T04:26:49.322Z,7.13
2018-10-12T04:29:21.618Z,7.77
2018-10-12T04:31:54.238Z,9.07
2018-10-12T04:34:26.710Z,7.00
2018-10-12T04:36:59.314Z,13.50
2018-10-12T04:39:52.883Z,7.30
2018-10-12T04:42:25.432Z,7.80
2018-10-12T04:44:57.851Z,14.13
2018-10-12T04:47:34.497Z,9.00
2018-10-12T04:50:07.005Z,10.87
2018-10-12T04:52:39.978Z,10.50
2018-10-12T04:55:12.189Z,12.50
2018-10-12T04:57:44.369Z,9.30
2018-10-12T05:00:17.000Z,9.10
2018-10-12T05:02:49.334Z,8.63
2018-10-12T05:05:21.579Z,10.97
2018-10-12T05:07:54.058Z,8.97
2018-10-12T05:10:26.762Z,10.70
2018-10-12T05:12:59.107Z,9.37
2018-10-12T05:15:31.790Z,10.67
2018-10-12T05:18:04.047Z,8.93
2018-10-12T05:20:36.008Z,8.93
2018-10-12T05:23:08.538Z,8.47
2018-10-12T05:25:41.072Z,8.20
2018-10-12T05:28:13.788Z,10.63
2018-10-12T05:30:46.157Z,8.93
2018-10-12T05:33:19.256Z,8.50
2018-10-12T05:35:51.800Z,10.23
2018-10-12T05:38:24.917Z,12.70
2018-10-12T05:40:56.981Z,10.67
2018-10-12T05:43:29.304Z,16.60
2018-10-12T05:46:01.987Z,15.70
2018-10-12T05:48:43.592Z,12.43
2018-10-12T05:51:17.488Z,46.97
2018-10-12T05:53:50.512Z,66.83
2018-10-12T05:56:27.956Z,26.60
2018-10-12T05:59:00.692Z,50.00
2018-10-12T06:01:32.972Z,37.90
2018-10-12T06:04:05.307Z,41.73
2018-10-12T06:06:37.617Z,40.57
2018-10-12T06:09:11.432Z,31.50
2018-10-12T06:11:44.122Z,17.87
2018-10-12T06:14:16.348Z,17.93
2018-10-12T06:16:48.700Z,16.87
2018-10-12T06:19:21.150Z,16.73
2018-10-12T06:21:53.393Z,15.00
2018-10-12T06:24:25.842Z,20.93
2018-10-12T06:26:58.116Z,18.60
2018-10-12T06:29:30.394Z,24.87
2018-10-12T06:32:03.192Z,20.67
2018-10-12T06:34:35.783Z,18.17
2018-10-12T06:37:08.202Z,16.90
2018-10-12T06:39:40.477Z,17.00
2018-10-12T06:42:12.740Z,13.27
2018-10-12T06:44:44.716Z,14.00
2018-10-12T06:47:17.493Z,15.77
2018-10-12T06:49:50.085Z,15.30
2018-10-12T06:52:22.506Z,16.70
2018-10-12T06:54:55.027Z,16.30
2018-10-12T06:57:27.325Z,16.57
2018-10-12T07:00:00.384Z,15.80
2018-10-12T07:02:33.050Z,16.27
2018-10-12T07:05:05.772Z,12.37
2018-10-12T07:07:38.358Z,13.67
2018-10-12T07:10:11.858Z,13.77
2018-10-12T07:12:44.378Z,16.03
2018-10-12T07:15:16.923Z,11.33
2018-10-12T07:17:49.366Z,12.60
2018-10-12T07:20:22.302Z,16.73
2018-10-12T07:22:54.682Z,11.93
2018-10-12T07:25:27.428Z,13.37
2018-10-12T07:27:59.942Z,11.73
2018-10-12T07:30:32.420Z,12.37
2018-10-12T07:33:04.577Z,16.30
2018-10-12T07:35:37.137Z,14.70
2018-10-12T07:38:09.553Z,13.28
2018-10-12T07:40:42.071Z,15.48
2018-10-12T07:43:14.670Z,12.65
2018-10-12T07:45:47.273Z,13.00
2018-10-12T07:48:19.608Z,13.60
2018-10-12T07:50:51.814Z,10.70
2018-10-12T07:53:24.386Z,12.00
2018-10-12T07:55:56.766Z,9.95
2018-10-12T07:58:28.977Z,12.40
2018-10-12T08:01:01.489Z,9.37
2018-10-12T08:03:33.927Z,9.33
2018-10-12T08:06:06.185Z,9.03
2018-10-12T08:08:38.609Z,7.10
2018-10-12T08:11:11.158Z,6.92
2018-10-12T08:13:43.683Z,7.10
2018-10-12T08:16:16.215Z,11.10
2018-10-12T08:18:48.726Z,7.60
2018-10-12T08:21:21.195Z,6.35
2018-10-12T08:23:53.866Z,6.70
2018-10-12T08:26:26.337Z,11.83
2018-10-12T08:28:58.641Z,11.85
2018-10-12T08:31:31.412Z,35.13
2018-10-12T08:34:03.899Z,64.85
2018-10-12T08:36:36.509Z,77.78
2018-10-12T08:39:12.570Z,85.75
2018-10-12T08:41:45.499Z,80.42
2018-10-12T08:44:17.790Z,83.17
2018-10-12T08:46:49.827Z,74.32
2018-10-12T08:49:22.347Z,31.77
2018-10-12T08:51:54.572Z,43.17
2018-10-12T08:54:26.899Z,81.72
2018-10-12T08:56:59.540Z,93.25
2018-10-12T08:59:32.083Z,79.60
2018-10-12T09:02:04.149Z,51.98
2018-10-12T09:04:36.878Z,35.52
2018-10-12T09:07:09.106Z,11.48
2018-10-12T09:09:41.482Z,12.58
2018-10-12T09:12:13.974Z,13.75
2018-10-12T09:14:46.933Z,9.50
2018-10-12T09:17:19.747Z,9.85
2018-10-12T09:19:52.007Z,9.23
2018-10-12T09:22:24.711Z,8.88
2018-10-12T09:24:56.822Z,9.85
2018-10-12T09:27:29.191Z,9.15
2018-10-12T09:30:01.581Z,12.18
2018-10-12T09:32:33.808Z,12.50
2018-10-12T09:35:06.271Z,12.25
2018-10-12T09:37:38.570Z,10.10
2018-10-12T09:40:10.922Z,8.65
2018-10-12T09:42:43.288Z,8.65
2018-10-12T09:45:15.843Z,11.20
2018-10-12T09:47:48.138Z,9.10
2018-10-12T09:50:21.271Z,7.87
2018-10-12T09:52:53.682Z,7.90
2018-10-12T09:55:26.264Z,8.43
2018-10-12T09:57:58.452Z,7.95
2018-10-12T10:00:35.791Z,10.13
2018-10-12T10:03:12.857Z,8.85
2018-10-12T10:05:45.145Z,6.80
2018-10-12T10:08:17.717Z,6.80
2018-10-12T10:10:50.175Z,7.20
2018-10-12T10:13:22.534Z,7.00
2018-10-12T10:15:55.294Z,6.33
2018-10-12T10:18:27.362Z,8.20
2018-10-12T10:21:00.258Z,9.23
2018-10-12T10:23:32.470Z,7.37
2018-10-12T10:26:05.322Z,7.25
2018-10-12T10:28:37.740Z,12.53
2018-10-12T10:31:10.077Z,7.62
2018-10-12T10:33:42.404Z,8.75
2018-10-12T10:36:14.722Z,7.05
2018-10-12T10:38:47.485Z,8.58
2018-10-12T10:41:20.560Z,8.13
2018-10-12T10:43:52.986Z,10.10
2018-10-12T10:46:25.628Z,7.83
2018-10-12T10:48:57.950Z,9.80
2018-10-12T10:51:30.508Z,7.35
2018-10-12T10:54:02.933Z,8.25
2018-10-12T10:56:35.447Z,7.65
2018-10-12T10:59:07.619Z,10.68
2018-10-12T11:01:40.127Z,8.55
2018-10-12T11:04:12.741Z,7.70
2018-10-12T11:06:44.882Z,7.30
2018-10-12T11:09:17.286Z,9.00
2018-10-12T11:11:49.550Z,7.33
2018-10-12T11:14:22.071Z,7.28
2018-10-12T11:16:54.346Z,10.75
2018-10-12T11:19:26.759Z,8.28
2018-10-12T11:21:59.291Z,7.80
2018-10-12T11:24:31.686Z,7.80
2018-10-12T11:27:04.324Z,11.28
2018-10-12T11:29:37.010Z,6.92
2018-10-12T11:32:09.696Z,7.33
2018-10-12T11:34:41.864Z,7.50
2018-10-12T11:37:14.146Z,8.68
2018-10-12T11:39:47.113Z,12.40
2018-10-12T11:42:19.559Z,7.22
2018-10-12T11:44:51.905Z,7.25
2018-10-12T11:47:23.991Z,6.25
2018-10-12T11:49:56.457Z,9.93
2018-10-12T11:52:28.831Z,10.38
2018-10-12T11:55:01.142Z,10.18
2018-10-12T11:57:33.526Z,8.95
2018-10-12T12:00:06.101Z,8.15
2018-10-12T12:02:38.649Z,7.60
2018-10-12T12:05:11.262Z,8.90
2018-10-12T12:07:43.649Z,7.35
2018-10-12T12:10:16.155Z,7.55
2018-10-12T12:12:48.741Z,6.30
2018-10-12T12:15:21.340Z,13.75
2018-10-12T12:17:53.530Z,7.90
2018-10-12T12:20:25.873Z,10.10
2018-10-12T12:22:58.512Z,7.25
2018-10-12T12:25:30.822Z,7.55
2018-10-12T12:28:03.106Z,7.33
2018-10-12T12:30:35.690Z,8.30
2018-10-12T12:33:08.090Z,9.60
2018-10-12T12:35:40.581Z,10.38
2018-10-12T12:38:12.275Z,8.98
2018-10-12T12:40:44.838Z,6.80
2018-10-12T12:43:17.276Z,8.35
2018-10-12T12:45:49.915Z,7.87
2018-10-12T12:48:22.963Z,8.63
2018-10-12T12:50:55.906Z,7.65
2018-10-12T12:53:28.509Z,8.33
2018-10-12T12:56:00.933Z,6.45
2018-10-12T12:58:33.261Z,10.20
2018-10-12T13:01:06.149Z,8.98
2018-10-12T13:03:39.434Z,8.10
2018-10-12T13:06:11.700Z,8.33
2018-10-12T13:08:44.738Z,6.80
2018-10-12T13:11:16.990Z,7.83
2018-10-12T13:13:49.482Z,8.58
2018-10-12T13:16:22.064Z,8.28
2018-10-12T13:18:54.446Z,9.53
2018-10-12T13:21:26.565Z,11.63
2018-10-12T13:23:58.801Z,8.10
2018-10-12T13:26:31.609Z,6.97
2018-10-12T13:29:04.240Z,8.50
2018-10-12T13:31:36.768Z,8.00
2018-10-12T13:34:08.906Z,7.47
2018-10-12T13:36:41.600Z,8.73
2018-10-12T13:39:14.608Z,7.60
2018-10-12T13:41:47.130Z,7.58
2018-10-12T13:44:19.214Z,10.05
2018-10-12T13:46:51.556Z,9.13
2018-10-12T13:49:24.072Z,9.48
2018-10-12T13:51:56.711Z,11.12
2018-10-12T13:54:29.517Z,10.85
2018-10-12T13:57:03.056Z,12.30
2018-10-12T13:59:35.619Z,7.05
2018-10-12T14:02:08.201Z,13.28
2018-10-12T14:04:41.202Z,10.08
2018-10-12T14:07:13.700Z,9.68
2018-10-12T14:09:46.083Z,9.53
2018-10-12T14:12:18.939Z,10.28
2018-10-12T14:14:51.083Z,9.00
2018-10-12T14:17:24.113Z,8.18
2018-10-12T14:19:56.436Z,9.30
2018-10-12T14:22:28.765Z,10.53
2018-10-12T14:25:01.236Z,10.00
2018-10-12T14:27:33.589Z,9.30
2018-10-12T14:30:06.214Z,9.55
2018-10-12T14:32:38.748Z,9.43
2018-10-12T14:35:11.152Z,10.55
2018-10-12T14:37:43.744Z,12.85
2018-10-12T14:40:15.810Z,11.90
2018-10-12T14:42:48.953Z,9.28
2018-10-12T14:45:21.220Z,12.50
2018-10-12T14:47:53.263Z,19.92
2018-10-12T14:50:25.675Z,12.05
2018-10-12T14:52:58.439Z,17.25
2018-10-12T14:55:30.790Z,28.65
2018-10-12T14:58:03.107Z,22.60
2018-10-12T15:00:35.608Z,24.75
2018-10-12T15:03:08.105Z,34.83
2018-10-12T15:05:40.651Z,19.67
2018-10-12T15:08:12.860Z,16.02
2018-10-12T15:10:45.883Z,16.37
2018-10-12T15:13:18.379Z,13.98
2018-10-12T15:15:50.541Z,16.40
2018-10-12T15:18:23.238Z,13.68
2018-10-12T15:20:55.613Z,13.85
2018-10-12T15:23:28.602Z,14.63
2018-10-12T15:26:01.578Z,12.82
2018-10-12T15:28:34.273Z,8.83
2018-10-12T15:31:07.237Z,10.70
2018-10-12T15:33:40.819Z,8.15
2018-10-12T15:36:13.590Z,11.75
2018-10-12T15:38:46.529Z,7.80
2018-10-12T15:41:19.500Z,9.55
2018-10-12T15:43:51.784Z,7.97
2018-10-12T15:46:24.122Z,10.28
2018-10-12T15:48:56.186Z,6.92
2018-10-12T15:51:28.651Z,7.58
2018-10-12T15:54:01.171Z,7.85
2018-10-12T15:56:33.813Z,8.20
2018-10-12T15:59:06.191Z,6.95
2018-10-12T16:01:38.695Z,7.50
2018-10-12T16:04:11.154Z,7.90
2018-10-12T16:06:43.746Z,6.83
2018-10-12T16:09:15.957Z,5.30
2018-10-12T16:11:49.566Z,5.90
2018-10-12T16:14:22.068Z,4.97
2018-10-12T16:16:54.548Z,5.73
2018-10-12T16:19:26.829Z,5.30
2018-10-12T16:21:59.501Z,6.00
2018-10-12T16:24:31.757Z,5.27
2018-10-12T16:27:03.934Z,5.20
2018-10-12T16:29:36.252Z,7.30
2018-10-12T16:32:08.641Z,5.30
2018-10-12T16:34:40.706Z,5.60
2018-10-12T16:37:12.957Z,7.73
2018-10-12T16:39:45.461Z,5.00
2018-10-12T16:42:18.919Z,5.93
2018-10-12T16:44:51.267Z,5.07
2018-10-12T16:47:23.319Z,8.03
2018-10-12T16:49:55.665Z,5.40
2018-10-12T16:52:28.194Z,6.23
2018-10-12T16:55:01.326Z,5.60
2018-10-12T16:57:36.757Z,9.13
2018-10-12T17:00:09.430Z,6.17
2018-10-12T17:02:41.605Z,7.23
2018-10-12T17:05:14.147Z,4.97
2018-10-12T17:07:47.003Z,7.67
2018-10-12T17:10:19.553Z,6.10
2018-10-12T17:12:51.946Z,8.07
2018-10-12T17:15:24.509Z,7.57
2018-10-12T17:17:57.905Z,5.33
2018-10-12T17:20:30.366Z,5.90
2018-10-12T17:23:02.636Z,5.67
2018-10-12T17:25:35.696Z,8.37
2018-10-12T17:28:08.200Z,6.67
2018-10-12T17:30:40.710Z,6.13
2018-10-12T17:33:13.101Z,6.00
2018-10-12T17:35:45.585Z,7.13
2018-10-12T17:38:18.071Z,7.17
2018-10-12T17:40:50.171Z,7.37
2018-10-12T17:43:22.714Z,8.20
2018-10-12T17:45:55.263Z,6.63
2018-10-12T17:48:27.408Z,7.10
2018-10-12T17:50:59.820Z,10.30
2018-10-12T17:53:32.067Z,9.50
2018-10-12T17:56:04.391Z,10.90
2018-10-12T17:58:36.782Z,11.20
2018-10-12T18:01:09.172Z,16.10
2018-10-12T18:03:41.583Z,12.87
2018-10-12T18:06:14.267Z,8.20
2018-10-12T18:08:46.807Z,13.70
2018-10-12T18:11:19.456Z,11.93
2018-10-12T18:13:51.780Z,12.07
2018-10-12T18:16:24.173Z,9.00
2018-10-12T18:18:56.809Z,11.70
2018-10-12T18:21:29.402Z,10.80
2018-10-12T18:24:01.946Z,9.80
2018-10-12T18:26:34.903Z,10.80
2018-10-12T18:29:07.099Z,12.90
2018-10-12T18:31:39.894Z,11.03
2018-10-12T18:34:12.206Z,11.60
2018-10-12T18:36:44.731Z,11.43
2018-10-12T18:39:17.348Z,13.27
2018-10-12T18:41:49.797Z,11.10
2018-10-12T18:44:22.479Z,10.93
2018-10-12T18:46:54.891Z,8.93
2018-10-12T18:49:27.313Z,9.63
2018-10-12T18:51:59.571Z,8.40
2018-10-12T18:54:31.968Z,7.13
2018-10-12T18:57:04.025Z,7.33
2018-10-12T18:59:36.605Z,6.63
2018-10-12T19:02:08.776Z,7.70
2018-10-12T19:04:41.387Z,7.70
2018-10-12T19:07:14.091Z,7.70
2018-10-12T19:09:46.343Z,9.93
2018-10-12T19:12:19.755Z,6.90
2018-10-12T19:14:52.503Z,7.73
2018-10-12T19:17:24.805Z,7.10
2018-10-12T19:19:57.251Z,7.50
2018-10-12T19:22:29.438Z,6.60
2018-10-12T19:25:02.003Z,7.00
2018-10-12T19:27:34.523Z,7.63
2018-10-12T19:30:06.986Z,10.90
2018-10-12T19:32:39.736Z,6.43
2018-10-12T19:35:12.153Z,8.60
2018-10-12T19:37:44.443Z,8.40
2018-10-12T19:40:17.041Z,9.27
2018-10-12T19:42:50.354Z,6.93
2018-10-12T19:45:22.943Z,8.10
2018-10-12T19:47:55.306Z,7.77
2018-10-12T19:50:30.660Z,7.97
2018-10-12T19:53:03.074Z,9.53
2018-10-12T19:55:35.244Z,9.57
2018-10-12T19:58:08.108Z,7.13
2018-10-12T20:00:40.420Z,9.50
2018-10-12T20:03:12.731Z,12.40
2018-10-12T20:05:45.225Z,10.50
2018-10-12T20:08:17.333Z,11.43
2018-10-12T20:10:49.655Z,10.03
2018-10-12T20:13:22.007Z,10.13
2018-10-12T20:15:54.395Z,11.17
2018-10-12T20:18:27.134Z,9.57
2018-10-12T20:20:59.982Z,14.33
2018-10-12T20:23:32.430Z,9.53
2018-10-12T20:26:05.131Z,8.23
2018-10-12T20:28:37.871Z,14.07
2018-10-12T20:31:11.395Z,9.70
2018-10-12T20:33:43.792Z,9.10
2018-10-12T20:36:15.953Z,8.67
2018-10-12T20:38:48.463Z,12.27
2018-10-12T20:41:20.976Z,9.47
2018-10-12T20:43:53.345Z,9.37
2018-10-12T20:46:25.500Z,7.93
2018-10-12T20:48:57.936Z,10.53
2018-10-12T20:51:30.528Z,6.27
2018-10-12T20:54:03.050Z,9.17
2018-10-12T20:56:35.422Z,8.03
2018-10-12T20:59:08.003Z,8.77
2018-10-12T21:01:40.791Z,8.60
2018-10-12T21:04:13.189Z,6.37
2018-10-12T21:06:46.031Z,6.57
2018-10-12T21:09:18.304Z,8.47
2018-10-12T21:11:50.737Z,6.17
2018-10-12T21:14:23.073Z,6.83
2018-10-12T21:16:56.001Z,6.23
2018-10-12T21:19:28.241Z,7.10
2018-10-12T21:22:00.755Z,6.57
2018-10-12T21:24:33.428Z,5.30
2018-10-12T21:27:05.791Z,5.70
2018-10-12T21:29:38.591Z,4.93
2018-10-12T21:32:10.969Z,8.80
2018-10-12T21:34:43.350Z,5.80
2018-10-12T21:37:16.099Z,6.03
2018-10-12T21:39:48.628Z,7.33
2018-10-12T21:42:21.327Z,4.47
2018-10-12T21:44:53.596Z,4.27
2018-10-12T21:47:25.801Z,6.80
2018-10-12T21:49:58.344Z,5.17
2018-10-12T21:52:30.828Z,4.73
2018-10-12T21:55:04.379Z,4.27
2018-10-12T21:57:36.841Z,3.60
2018-10-12T22:00:09.308Z,3.33
2018-10-12T22:02:42.136Z,4.30
2018-10-12T22:05:14.399Z,3.10
2018-10-12T22:07:46.770Z,2.83
2018-10-12T22:10:19.245Z,3.33
2018-10-12T22:12:51.897Z,3.60
2018-10-12T22:15:24.209Z,2.90
2018-10-12T22:17:56.868Z,3.07
2018-10-12T22:20:29.499Z,2.50
2018-10-12T22:23:02.165Z,5.30
2018-10-12T22:25:35.053Z,3.53
2018-10-12T22:28:07.540Z,3.03
2018-10-12T22:30:39.975Z,3.07
2018-10-12T22:33:12.441Z,3.00
2018-10-12T22:35:45.027Z,2.60
2018-10-12T22:38:17.355Z,2.80
2018-10-12T22:40:49.746Z,5.40
2018-10-12T22:43:21.928Z,5.20
2018-10-12T22:45:54.302Z,3.20
2018-10-12T22:48:27.528Z,5.40
2018-10-12T22:51:00.044Z,3.60
2018-10-12T22:53:32.640Z,4.33
2018-10-12T22:56:04.922Z,3.13
2018-10-12T22:58:37.374Z,3.03
2018-10-12T23:01:10.548Z,5.40
2018-10-12T23:03:42.704Z,4.90
2018-10-12T23:06:15.302Z,2.90
2018-10-12T23:08:47.618Z,2.97
2018-10-12T23:11:19.768Z,4.03
2018-10-12T23:13:52.337Z,4.77
2018-10-12T23:16:24.598Z,5.23
2018-10-12T23:18:56.983Z,3.20
2018-10-12T23:21:29.387Z,3.87
2018-10-12T23:24:01.933Z,5.10
2018-10-12T23:26:34.613Z,4.40
2018-10-12T23:29:06.891Z,5.17
2018-10-12T23:31:38.897Z,2.80
2018-10-12T23:34:11.339Z,4.23
2018-10-12T23:36:44.018Z,4.23
2018-10-12T23:39:16.480Z,3.70
2018-10-12T23:41:48.616Z,3.70
2018-10-12T23:44:20.853Z,3.20
2018-10-12T23:46:53.737Z,2.70
2018-10-12T23:49:26.455Z,6.77
2018-10-12T23:51:58.975Z,3.73
2018-10-12T23:54:32.032Z,3.50
2018-10-12T23:57:04.570Z,3.17
2018-10-12T23:59:37.282Z,4.33
